Time;durP1;ratioP1;P1;durP2;ratioP2;P2;SDS_P1;SDS_P2;PMS_P1;PMS_P2;Temp;Humidity;BMP_temperature;BMP_pressure;BME280_temperature;BME280_humidity;BME280_pressure;Samples;Min_cycle;Max_cycle;Signal;HPM_P1;HPM_P2
2021/05/24 00:01:25;;;;;;;18.00;8.30;;;;;;;;;;5049411;28;20224;-76
2021/05/24 00:03:51;;;;;;;9.25;7.90;;;;;;;;;;5056491;28;20466;-75
2021/05/24 00:06:17;;;;;;;8.77;7.88;;;;;;;;;;5049147;28;20227;-76
2021/05/24 00:08:43;;;;;;;9.00;8.10;;;;;;;;;;5055707;28;20228;-75
2021/05/24 00:11:09;;;;;;;9.50;8.52;;;;;;;;;;5055898;28;20200;-74
2021/05/24 00:13:44;;;;;;;8.85;8.00;;;;;;;;;;5072520;28;20278;-75
2021/05/24 00:16:10;;;;;;;8.95;8.13;;;;;;;;;;5079487;28;20172;-75
2021/05/24 00:18:36;;;;;;;8.77;7.88;;;;;;;;;;5058214;28;20185;-74
2021/05/24 00:21:02;;;;;;;9.85;8.85;;;;;;;;;;5052645;28;20640;-76
2021/05/24 00:23:29;;;;;;;9.35;8.45;;;;;;;;;;5065556;28;20695;-74
2021/05/24 00:25:55;;;;;;;9.55;8.63;;;;;;;;;;5072833;28;20203;-75
2021/05/24 00:28:22;;;;;;;9.15;8.35;;;;;;;;;;5057419;28;20200;-74
2021/05/24 00:30:49;;;;;;;10.43;9.32;;;;;;;;;;5052741;28;20201;-75
2021/05/24 00:33:15;;;;;;;9.13;8.27;;;;;;;;;;5068569;28;20177;-75
2021/05/24 00:35:42;;;;;;;8.80;7.90;;;;;;;;;;5065691;28;20226;-74
2021/05/24 00:38:08;;;;;;;9.70;8.80;;;;;;;;;;5056738;28;20176;-75
2021/05/24 00:40:35;;;;;;;9.38;8.30;;;;;;;;;;5056767;28;20208;-74
2021/05/24 00:43:02;;;;;;;10.45;8.15;;;;;;;;;;5056304;28;20208;-76
2021/05/24 00:45:28;;;;;;;7.88;7.25;;;;;;;;;;5056924;28;20215;-76
2021/05/24 00:47:54;;;;;;;9.30;8.40;;;;;;;;;;5056673;28;20184;-75
2021/05/24 00:50:20;;;;;;;8.48;7.65;;;;;;;;;;5056386;28;20188;-74
2021/05/24 00:52:46;;;;;;;8.35;7.47;;;;;;;;;;5056402;28;20262;-74
2021/05/24 00:55:13;;;;;;;9.65;8.65;;;;;;;;;;5059425;28;20239;-75
2021/05/24 00:57:39;;;;;;;8.52;7.63;;;;;;;;;;5072972;28;20608;-74
2021/05/24 01:00:07;;;;;;;11.60;7.28;;;;;;;;;;5064170;28;20545;-75
2021/05/24 01:02:33;;;;;;;7.78;7.18;;;;;;;;;;5066142;28;20180;-74
2021/05/24 01:04:59;;;;;;;8.20;7.40;;;;;;;;;;5075244;28;20174;-75
2021/05/24 01:07:25;;;;;;;8.98;8.23;;;;;;;;;;5089412;28;20188;-76
2021/05/24 01:09:52;;;;;;;11.65;7.88;;;;;;;;;;5058895;28;20203;-74
2021/05/24 01:12:18;;;;;;;8.48;7.68;;;;;;;;;;5060749;28;20180;-74
2021/05/24 01:14:44;;;;;;;12.43;8.15;;;;;;;;;;5066634;28;20185;-74
2021/05/24 01:17:10;;;;;;;7.85;7.15;;;;;;;;;;5072422;28;20177;-75
2021/05/24 01:19:43;;;;;;;8.20;7.45;;;;;;;;;;5055792;28;20290;-75
2021/05/24 01:22:15;;;;;;;9.18;7.78;;;;;;;;;;5058300;28;20543;-75
2021/05/24 01:24:41;;;;;;;8.18;7.38;;;;;;;;;;5080386;28;20342;-74
2021/05/24 01:27:07;;;;;;;8.05;7.40;;;;;;;;;;5062217;28;20202;-74
2021/05/24 01:29:33;;;;;;;7.82;7.13;;;;;;;;;;5063984;28;20224;-75
2021/05/24 01:31:59;;;;;;;7.90;7.05;;;;;;;;;;5081853;28;20696;-75
2021/05/24 01:34:25;;;;;;;7.90;7.07;;;;;;;;;;5055838;28;20630;-74
2021/05/24 01:36:51;;;;;;;7.50;6.90;;;;;;;;;;5062687;28;20180;-74
2021/05/24 01:39:19;;;;;;;9.60;7.57;;;;;;;;;;5064176;28;20201;-74
2021/05/24 01:41:46;;;;;;;7.57;6.60;;;;;;;;;;5065840;28;20177;-74
2021/05/24 01:44:12;;;;;;;7.78;7.18;;;;;;;;;;5055472;28;20389;-75
2021/05/24 01:46:38;;;;;;;8.00;7.00;;;;;;;;;;5082233;28;20217;-74
2021/05/24 01:49:04;;;;;;;8.27;7.40;;;;;;;;;;5071872;28;20174;-74
2021/05/24 01:51:30;;;;;;;7.63;6.88;;;;;;;;;;5062349;28;20169;-75
2021/05/24 01:53:56;;;;;;;8.07;7.13;;;;;;;;;;5055239;28;20208;-74
2021/05/24 01:56:22;;;;;;;7.40;6.80;;;;;;;;;;5060662;28;20184;-75
2021/05/24 01:58:49;;;;;;;8.30;7.60;;;;;;;;;;5067318;28;20191;-74
2021/05/24 02:01:15;;;;;;;8.63;7.63;;;;;;;;;;5061154;28;20173;-76
2021/05/24 02:03:44;;;;;;;8.75;7.40;;;;;;;;;;5054723;28;20201;-74
2021/05/24 02:06:10;;;;;;;8.75;7.95;;;;;;;;;;5056638;28;20227;-75
2021/05/24 02:08:36;;;;;;;11.63;7.35;;;;;;;;;;5054638;28;20177;-75
2021/05/24 02:11:03;;;;;;;8.85;7.95;;;;;;;;;;5079221;28;20187;-74
2021/05/24 02:13:29;;;;;;;7.65;6.85;;;;;;;;;;5069930;28;20189;-74
2021/05/24 02:15:55;;;;;;;8.10;7.15;;;;;;;;;;5063179;28;20228;-75
2021/05/24 02:18:21;;;;;;;9.20;8.25;;;;;;;;;;5069599;28;20713;-75
2021/05/24 02:20:47;;;;;;;7.88;7.18;;;;;;;;;;5057626;28;20256;-75
2021/05/24 02:23:14;;;;;;;8.50;7.70;;;;;;;;;;5067597;28;20538;-74
2021/05/24 02:25:40;;;;;;;9.68;8.82;;;;;;;;;;5056274;28;20176;-74
2021/05/24 02:28:06;;;;;;;8.50;7.80;;;;;;;;;;5067897;28;20179;-75
2021/05/24 02:30:34;;;;;;;8.75;7.95;;;;;;;;;;5061067;28;20247;-74
2021/05/24 02:33:00;;;;;;;8.80;7.85;;;;;;;;;;5067753;28;20180;-74
2021/05/24 02:35:27;;;;;;;8.40;7.70;;;;;;;;;;5061230;28;20511;-76
2021/05/24 02:37:53;;;;;;;8.15;7.35;;;;;;;;;;5065603;28;20177;-75
2021/05/24 02:40:21;;;;;;;8.80;7.80;;;;;;;;;;5058361;28;20245;-74
2021/05/24 02:42:47;;;;;;;9.25;7.80;;;;;;;;;;5060550;28;20205;-75
2021/05/24 02:45:14;;;;;;;8.00;7.10;;;;;;;;;;5056989;28;20177;-74
2021/05/24 02:47:40;;;;;;;8.27;7.57;;;;;;;;;;5074403;28;20175;-76
2021/05/24 02:50:08;;;;;;;8.60;7.90;;;;;;;;;;5054317;28;20201;-75
2021/05/24 02:52:34;;;;;;;9.32;6.63;;;;;;;;;;5055412;28;20180;-74
2021/05/24 02:55:00;;;;;;;8.15;7.32;;;;;;;;;;5066104;28;20187;-75
2021/05/24 02:57:26;;;;;;;8.93;7.47;;;;;;;;;;5067237;28;20181;-75
2021/05/24 02:59:52;;;;;;;7.88;7.15;;;;;;;;;;5086785;28;20203;-75
2021/05/24 03:02:25;;;;;;;7.70;7.10;;;;;;;;;;5077987;28;20658;-75
2021/05/24 03:04:51;;;;;;;8.05;7.35;;;;;;;;;;5061157;28;20212;-74
2021/05/24 03:07:17;;;;;;;8.00;7.13;;;;;;;;;;5055945;28;20263;-75
2021/05/24 03:09:43;;;;;;;9.05;7.18;;;;;;;;;;5064658;28;20225;-75
2021/05/24 03:12:09;;;;;;;7.50;6.90;;;;;;;;;;5054047;28;20200;-72
2021/05/24 03:14:35;;;;;;;8.52;6.68;;;;;;;;;;5057779;28;20177;-76
2021/05/24 03:17:01;;;;;;;7.78;6.68;;;;;;;;;;5056044;28;20231;-76
2021/05/24 03:19:27;;;;;;;7.68;6.85;;;;;;;;;;5066851;28;20532;-74
2021/05/24 03:21:53;;;;;;;8.30;6.90;;;;;;;;;;5053495;28;20207;-76
2021/05/24 03:24:19;;;;;;;7.32;6.63;;;;;;;;;;5068099;28;20555;-74
2021/05/24 03:26:45;;;;;;;7.18;6.38;;;;;;;;;;5073922;28;20180;-75
2021/05/24 03:29:11;;;;;;;7.57;6.72;;;;;;;;;;5080767;28;20222;-75
2021/05/24 03:31:37;;;;;;;7.30;6.60;;;;;;;;;;5078331;28;20203;-75
2021/05/24 03:34:03;;;;;;;7.22;6.55;;;;;;;;;;5079310;28;20512;-75
2021/05/24 03:36:29;;;;;;;7.15;6.50;;;;;;;;;;5077370;28;20163;-75
2021/05/24 03:38:55;;;;;;;7.07;6.38;;;;;;;;;;5069378;28;20176;-74
2021/05/24 03:41:21;;;;;;;8.00;7.40;;;;;;;;;;5060003;28;20177;-75
2021/05/24 03:43:48;;;;;;;7.60;6.90;;;;;;;;;;5070327;28;20282;-75
2021/05/24 03:46:14;;;;;;;7.25;6.53;;;;;;;;;;5075763;28;20173;-75
2021/05/24 03:48:40;;;;;;;6.88;5.50;;;;;;;;;;5061834;28;20608;-76
2021/05/24 03:51:07;;;;;;;6.47;5.50;;;;;;;;;;5056400;28;20280;-75
2021/05/24 03:53:34;;;;;;;5.97;5.30;;;;;;;;;;5061813;28;20569;-75
2021/05/24 03:56:00;;;;;;;5.45;5.05;;;;;;;;;;5063136;28;20598;-74
2021/05/24 03:58:26;;;;;;;5.60;5.10;;;;;;;;;;5063728;28;20184;-78
2021/05/24 04:00:52;;;;;;;6.20;5.65;;;;;;;;;;5073003;28;20215;-74
2021/05/24 04:03:18;;;;;;;5.85;5.35;;;;;;;;;;5063768;28;20196;-76
2021/05/24 04:05:47;;;;;;;5.63;5.13;;;;;;;;;;5082405;28;20167;-75
2021/05/24 04:08:13;;;;;;;5.90;5.30;;;;;;;;;;5063536;28;20184;-76
2021/05/24 04:10:47;;;;;;;5.97;5.47;;;;;;;;;;5079997;28;20547;-72
2021/05/24 04:13:13;;;;;;;8.77;5.93;;;;;;;;;;5071886;28;20224;-76
2021/05/24 04:15:40;;;;;;;5.55;5.00;;;;;;;;;;5084775;28;20584;-74
2021/05/24 04:18:13;;;;;;;5.47;4.93;;;;;;;;;;5076257;28;20189;-76
2021/05/24 04:20:39;;;;;;;5.50;5.00;;;;;;;;;;5079098;28;20278;-76
2021/05/24 04:23:05;;;;;;;6.10;5.45;;;;;;;;;;5068202;28;20196;-73
2021/05/24 04:25:31;;;;;;;5.13;4.72;;;;;;;;;;5056760;28;20181;-73
2021/05/24 04:27:57;;;;;;;5.10;4.60;;;;;;;;;;5061942;28;20514;-73
2021/05/24 04:30:23;;;;;;;5.43;4.80;;;;;;;;;;5072574;28;20206;-75
2021/05/24 04:32:49;;;;;;;7.57;5.13;;;;;;;;;;5072843;28;20247;-75
2021/05/24 04:35:16;;;;;;;5.93;5.32;;;;;;;;;;5063948;28;20275;-75
2021/05/24 04:37:42;;;;;;;5.85;5.15;;;;;;;;;;5053003;28;20255;-75
2021/05/24 04:40:08;;;;;;;6.50;4.90;;;;;;;;;;5078663;28;20218;-74
2021/05/24 04:42:34;;;;;;;13.20;5.07;;;;;;;;;;5072897;28;20407;-75
2021/05/24 04:45:00;;;;;;;5.40;4.90;;;;;;;;;;5078949;28;20561;-74
2021/05/24 04:47:26;;;;;;;4.60;4.20;;;;;;;;;;5063367;28;20603;-75
2021/05/24 04:49:52;;;;;;;4.50;4.10;;;;;;;;;;5065877;28;20192;-74
2021/05/24 04:52:19;;;;;;;5.73;4.20;;;;;;;;;;5062116;28;20411;-73
2021/05/24 04:54:45;;;;;;;4.25;3.85;;;;;;;;;;5072139;28;20775;-74
2021/05/24 04:57:11;;;;;;;6.18;4.95;;;;;;;;;;5063209;28;20264;-74
2021/05/24 04:59:38;;;;;;;7.57;4.10;;;;;;;;;;5065697;28;20208;-75
2021/05/24 05:02:04;;;;;;;4.50;3.60;;;;;;;;;;5052450;28;20173;-76
2021/05/24 05:04:30;;;;;;;5.45;3.95;;;;;;;;;;5058615;28;20220;-75
2021/05/24 05:06:57;;;;;;;4.88;3.55;;;;;;;;;;5062479;28;20188;-75
2021/05/24 05:09:25;;;;;;;6.82;3.80;;;;;;;;;;5054060;28;20193;-75
2021/05/24 05:11:52;;;;;;;5.05;3.63;;;;;;;;;;5062277;28;20188;-75
2021/05/24 05:14:18;;;;;;;6.45;3.60;;;;;;;;;;5055794;28;20674;-76
2021/05/24 05:16:44;;;;;;;3.60;3.23;;;;;;;;;;5052690;28;20268;-75
2021/05/24 05:19:10;;;;;;;4.30;3.93;;;;;;;;;;5055436;28;20433;-75
2021/05/24 05:21:36;;;;;;;3.83;3.42;;;;;;;;;;5076861;28;20900;-76
2021/05/24 05:24:02;;;;;;;3.67;3.33;;;;;;;;;;5066880;28;20192;-76
2021/05/24 05:26:28;;;;;;;3.38;3.10;;;;;;;;;;5064238;28;20260;-75
2021/05/24 05:28:54;;;;;;;3.10;2.90;;;;;;;;;;5058990;28;21044;-76
2021/05/24 05:31:20;;;;;;;3.13;2.83;;;;;;;;;;5076130;28;20259;-75
2021/05/24 05:33:46;;;;;;;3.45;3.13;;;;;;;;;;5066473;28;20412;-74
2021/05/24 05:36:12;;;;;;;3.08;2.78;;;;;;;;;;5062476;28;20220;-74
2021/05/24 05:38:39;;;;;;;3.40;3.10;;;;;;;;;;5066200;28;20184;-75
2021/05/24 05:41:05;;;;;;;3.70;2.90;;;;;;;;;;5082737;28;20451;-74
2021/05/24 05:43:31;;;;;;;6.45;3.20;;;;;;;;;;5075144;28;20200;-74
2021/05/24 05:45:57;;;;;;;4.95;3.30;;;;;;;;;;5070687;28;20204;-75
2021/05/24 05:48:24;;;;;;;3.40;2.88;;;;;;;;;;5055144;28;20245;-76
2021/05/24 05:50:50;;;;;;;3.78;2.80;;;;;;;;;;5073244;28;20193;-74
2021/05/24 05:53:16;;;;;;;4.13;2.97;;;;;;;;;;5064883;28;20191;-75
2021/05/24 05:55:42;;;;;;;3.33;2.77;;;;;;;;;;5058774;28;20461;-74
2021/05/24 05:58:08;;;;;;;3.73;2.80;;;;;;;;;;5066182;28;20480;-76
2021/05/24 06:00:34;;;;;;;3.30;2.60;;;;;;;;;;5087183;28;20588;-75
2021/05/24 06:03:00;;;;;;;4.10;2.90;;;;;;;;;;5069287;28;20779;-75
2021/05/24 06:05:26;;;;;;;3.58;2.67;;;;;;;;;;5058631;28;20187;-73
2021/05/24 06:07:52;;;;;;;6.72;2.97;;;;;;;;;;5064419;28;20204;-76
2021/05/24 06:10:18;;;;;;;5.60;3.20;;;;;;;;;;5058433;28;20227;-77
2021/05/24 06:12:47;;;;;;;2.97;2.63;;;;;;;;;;5054655;28;20391;-75
2021/05/24 06:15:16;;;;;;;3.03;2.67;;;;;;;;;;5058546;28;20230;-75
2021/05/24 06:17:42;;;;;;;3.88;3.47;;;;;;;;;;5064204;28;20184;-74
2021/05/24 06:20:08;;;;;;;3.00;2.58;;;;;;;;;;5056972;28;20197;-75
2021/05/24 06:22:34;;;;;;;3.28;2.78;;;;;;;;;;5054658;28;20211;-75
2021/05/24 06:25:00;;;;;;;2.83;2.40;;;;;;;;;;5055200;28;20208;-75
2021/05/24 06:27:26;;;;;;;3.42;2.75;;;;;;;;;;5056347;28;20173;-75
2021/05/24 06:29:52;;;;;;;2.70;2.40;;;;;;;;;;5086089;28;20196;-74
2021/05/24 06:32:18;;;;;;;5.28;2.53;;;;;;;;;;5064054;28;20214;-75
2021/05/24 06:34:44;;;;;;;4.50;2.60;;;;;;;;;;5080235;28;20176;-74
2021/05/24 06:37:11;;;;;;;3.57;2.50;;;;;;;;;;5074698;28;20602;-75
2021/05/24 06:39:37;;;;;;;2.90;2.40;;;;;;;;;;5059547;28;20936;-76
2021/05/24 06:42:03;;;;;;;3.38;2.10;;;;;;;;;;5064763;28;20247;-76
2021/05/24 06:44:29;;;;;;;2.95;2.30;;;;;;;;;;5056885;28;20669;-76
2021/05/24 06:46:55;;;;;;;4.90;2.57;;;;;;;;;;5053878;28;20181;-75
2021/05/24 06:49:21;;;;;;;3.72;2.38;;;;;;;;;;5055010;28;20436;-75
2021/05/24 06:51:47;;;;;;;3.33;2.20;;;;;;;;;;5053881;28;20681;-77
2021/05/24 06:54:13;;;;;;;2.85;2.00;;;;;;;;;;5066633;28;20439;-76
2021/05/24 06:56:40;;;;;;;4.97;2.40;;;;;;;;;;5053903;28;20208;-74
2021/05/24 06:59:06;;;;;;;4.77;2.50;;;;;;;;;;5077895;28;20181;-75
2021/05/24 07:01:32;;;;;;;3.33;1.92;;;;;;;;;;5053686;28;20408;-76
2021/05/24 07:03:58;;;;;;;3.47;2.10;;;;;;;;;;5063036;28;20192;-75
2021/05/24 07:06:24;;;;;;;5.10;2.10;;;;;;;;;;5053638;28;20232;-75
2021/05/24 07:08:50;;;;;;;3.63;1.90;;;;;;;;;;5075889;28;20168;-76
2021/05/24 07:11:16;;;;;;;6.00;2.00;;;;;;;;;;5093975;28;20874;-75
2021/05/24 07:13:42;;;;;;;2.87;1.77;;;;;;;;;;5068723;28;20505;-75
2021/05/24 07:16:08;;;;;;;2.50;1.90;;;;;;;;;;5065115;28;20434;-75
2021/05/24 07:18:34;;;;;;;2.77;1.90;;;;;;;;;;5069916;28;20422;-76
2021/05/24 07:21:00;;;;;;;2.73;1.70;;;;;;;;;;5071823;28;20795;-78
2021/05/24 07:23:26;;;;;;;3.87;1.93;;;;;;;;;;5069231;28;20448;-74
2021/05/24 07:25:52;;;;;;;3.60;1.90;;;;;;;;;;5053712;28;20427;-75
2021/05/24 07:28:19;;;;;;;3.23;2.47;;;;;;;;;;5053362;28;20463;-76
2021/05/24 07:30:45;;;;;;;2.40;1.90;;;;;;;;;;5061253;28;20434;-75
2021/05/24 07:33:11;;;;;;;5.70;2.10;;;;;;;;;;5081599;28;20415;-74
2021/05/24 07:35:37;;;;;;;3.60;1.70;;;;;;;;;;5061516;28;20473;-76
2021/05/24 07:38:03;;;;;;;2.57;1.90;;;;;;;;;;5061374;28;20409;-76
2021/05/24 07:40:29;;;;;;;2.87;1.70;;;;;;;;;;5073894;28;20437;-76
2021/05/24 07:42:55;;;;;;;2.80;1.80;;;;;;;;;;5078466;28;20830;-74
2021/05/24 07:45:21;;;;;;;2.00;1.53;;;;;;;;;;5054054;28;20472;-75
2021/05/24 07:47:47;;;;;;;2.60;2.00;;;;;;;;;;5064941;28;20431;-76
2021/05/24 07:50:13;;;;;;;3.87;1.73;;;;;;;;;;5068434;28;20427;-75
2021/05/24 07:52:39;;;;;;;3.50;1.80;;;;;;;;;;5053159;28;20480;-76
2021/05/24 07:55:06;;;;;;;2.13;1.57;;;;;;;;;;5053139;28;20446;-76
2021/05/24 07:57:33;;;;;;;2.03;1.60;;;;;;;;;;5052785;28;20415;-74
2021/05/24 07:59:59;;;;;;;3.77;1.70;;;;;;;;;;5053160;28;20432;-74
2021/05/24 08:02:25;;;;;;;2.30;1.57;;;;;;;;;;5052822;28;20413;-74
2021/05/24 08:04:51;;;;;;;2.67;1.60;;;;;;;;;;5071667;28;20803;-75
2021/05/24 08:07:18;;;;;;;2.30;1.73;;;;;;;;;;5060464;28;20429;-74
2021/05/24 08:09:44;;;;;;;2.90;1.50;;;;;;;;;;5072114;28;20772;-76
2021/05/24 08:12:12;;;;;;;3.07;1.70;;;;;;;;;;5061019;28;20418;-74
2021/05/24 08:14:38;;;;;;;2.10;1.50;;;;;;;;;;5059572;28;20412;-74
2021/05/24 08:17:04;;;;;;;2.90;1.50;;;;;;;;;;5086872;28;20418;-77
2021/05/24 08:19:30;;;;;;;2.50;1.50;;;;;;;;;;5060508;28;20483;-76
2021/05/24 08:21:56;;;;;;;2.50;1.40;;;;;;;;;;5052754;28;20418;-76
2021/05/24 08:24:22;;;;;;;3.97;1.50;;;;;;;;;;5053104;28;20462;-77
2021/05/24 08:26:48;;;;;;;2.00;1.50;;;;;;;;;;5058001;28;20504;-75
2021/05/24 08:29:15;;;;;;;2.67;1.50;;;;;;;;;;5060563;28;20434;-74
2021/05/24 08:31:41;;;;;;;2.37;1.53;;;;;;;;;;5052823;28;20407;-75
2021/05/24 08:34:07;;;;;;;2.57;1.57;;;;;;;;;;5052679;28;20418;-74
2021/05/24 08:36:33;;;;;;;2.73;1.60;;;;;;;;;;5052750;28;20420;-73
2021/05/24 08:38:59;;;;;;;3.73;1.53;;;;;;;;;;5072349;28;20822;-76
2021/05/24 08:41:25;;;;;;;2.30;1.43;;;;;;;;;;5063976;28;20480;-76
2021/05/24 08:43:51;;;;;;;2.60;1.47;;;;;;;;;;5057307;28;20494;-75
2021/05/24 08:46:18;;;;;;;2.73;1.30;;;;;;;;;;5056700;28;20415;-77
2021/05/24 08:48:44;;;;;;;2.77;1.20;;;;;;;;;;5056962;28;20407;-76
2021/05/24 08:51:10;;;;;;;3.30;1.30;;;;;;;;;;5055041;28;20438;-76
2021/05/24 08:53:37;;;;;;;3.43;1.20;;;;;;;;;;5056639;28;21226;-75
2021/05/24 08:56:03;;;;;;;2.67;1.40;;;;;;;;;;5049454;28;20419;-75
2021/05/24 08:58:29;;;;;;;3.03;1.40;;;;;;;;;;5068565;28;20506;-76
2021/05/24 09:00:55;;;;;;;1.90;1.40;;;;;;;;;;5066134;28;20613;-75
2021/05/24 09:03:23;;;;;;;2.37;1.43;;;;;;;;;;5057627;28;20463;-76
2021/05/24 09:05:50;;;;;;;2.40;1.37;;;;;;;;;;5053114;28;20427;-73
2021/05/24 09:08:16;;;;;;;2.10;1.50;;;;;;;;;;5084823;28;20413;-75
2021/05/24 09:10:43;;;;;;;2.10;1.47;;;;;;;;;;5053742;28;20900;-73
2021/05/24 09:13:14;;;;;;;3.17;1.40;;;;;;;;;;5054694;28;20452;-75
2021/05/24 09:15:41;;;;;;;2.20;1.20;;;;;;;;;;5063952;28;20787;-76
2021/05/24 09:18:09;;;;;;;2.57;1.30;;;;;;;;;;5076618;28;20503;-74
2021/05/24 09:20:36;;;;;;;3.40;1.60;;;;;;;;;;5060696;28;20422;-76
2021/05/24 09:23:12;;;;;;;2.47;1.30;;;;;;;;;;5082598;28;20425;-75
2021/05/24 09:25:53;;;;;;;1.97;1.27;;;;;;;;;;5061355;28;20846;-76
2021/05/24 09:28:32;;;;;;;2.20;1.20;;;;;;;;;;5066253;28;20437;-76
2021/05/24 09:30:59;;;;;;;3.57;1.97;;;;;;;;;;5063574;28;20439;-74
2021/05/24 09:33:26;;;;;;;3.20;1.93;;;;;;;;;;5067096;28;20517;-74
2021/05/24 09:35:52;;;;;;;2.60;1.30;;;;;;;;;;5066540;28;20438;-73
2021/05/24 09:38:19;;;;;;;3.53;1.90;;;;;;;;;;5063972;28;20417;-75
2021/05/24 09:40:56;;;;;;;2.20;1.37;;;;;;;;;;5052255;28;20514;-76
2021/05/24 09:43:29;;;;;;;3.67;1.90;;;;;;;;;;5056648;28;20480;-76
2021/05/24 09:46:06;;;;;;;2.00;1.13;;;;;;;;;;5060379;28;20455;-75
2021/05/24 09:48:32;;;;;;;5.93;4.93;;;;;;;;;;5051881;28;20472;-77
2021/05/24 09:50:58;;;;;;;2.10;1.40;;;;;;;;;;5051922;28;20434;-77
2021/05/24 09:53:24;;;;;;;3.40;1.40;;;;;;;;;;5057836;28;20505;-78
2021/05/24 09:55:50;;;;;;;2.40;1.23;;;;;;;;;;5058188;28;20458;-76
2021/05/24 09:58:17;;;;;;;2.27;1.13;;;;;;;;;;5051510;28;20411;-75
2021/05/24 10:00:48;;;;;;;2.67;1.10;;;;;;;;;;5074181;28;20437;-77
2021/05/24 10:03:15;;;;;;;1.90;1.33;;;;;;;;;;5063373;28;20516;-76
2021/05/24 10:05:42;;;;;;;3.20;1.43;;;;;;;;;;5070912;28;20399;-76
2021/05/24 10:08:09;;;;;;;2.50;1.37;;;;;;;;;;5059341;28;20387;-75
2021/05/24 10:10:36;;;;;;;2.17;1.30;;;;;;;;;;5057066;28;20463;-74
2021/05/24 10:13:02;;;;;;;2.43;1.30;;;;;;;;;;5051205;28;20411;-74
2021/05/24 10:15:28;;;;;;;2.57;1.43;;;;;;;;;;5057984;28;20410;-76
2021/05/24 10:18:01;;;;;;;2.60;1.50;;;;;;;;;;5072601;28;20414;-74
2021/05/24 10:20:28;;;;;;;1.90;1.30;;;;;;;;;;5070959;28;20437;-75
2021/05/24 10:22:54;;;;;;;5.17;4.03;;;;;;;;;;5057797;28;20485;-73
2021/05/24 10:25:20;;;;;;;5.20;4.70;;;;;;;;;;5071251;28;20828;-77
2021/05/24 10:27:46;;;;;;;1.90;1.10;;;;;;;;;;5072744;28;20421;-75
2021/05/24 10:30:13;;;;;;;2.20;1.30;;;;;;;;;;5051726;28;20470;-76
2021/05/24 10:33:09;;;;;;;10.60;7.10;;;;;;;;;;5052041;28;20419;-75
2021/05/24 10:35:35;;;;;;;3.00;1.53;;;;;;;;;;5058052;28;20461;-73
2021/05/24 10:38:19;;;;;;;1.80;1.10;;;;;;;;;;5054423;28;20860;-74
2021/05/24 10:40:46;;;;;;;2.23;1.27;;;;;;;;;;5063502;28;20477;-76
2021/05/24 10:43:15;;;;;;;2.53;1.30;;;;;;;;;;5050820;28;20411;-76
2021/05/24 10:45:41;;;;;;;4.23;3.83;;;;;;;;;;5064450;28;20407;-74
2021/05/24 10:48:07;;;;;;;2.07;1.30;;;;;;;;;;5064993;28;20411;-75
2021/05/24 10:50:35;;;;;;;2.20;1.60;;;;;;;;;;5065105;28;20430;-77
2021/05/24 10:53:02;;;;;;;3.27;1.90;;;;;;;;;;5052212;28;20412;-75
2021/05/24 10:55:28;;;;;;;2.40;1.50;;;;;;;;;;5052617;28;20454;-76
2021/05/24 10:58:04;;;;;;;2.50;1.23;;;;;;;;;;5071569;28;20862;-76
2021/05/24 11:00:49;;;;;;;2.20;1.10;;;;;;;;;;5055817;28;20564;-75
2021/05/24 11:03:15;;;;;;;2.03;1.20;;;;;;;;;;5057279;28;20422;-79
2021/05/24 11:05:42;;;;;;;3.00;1.60;;;;;;;;;;5050934;28;20472;-77
2021/05/24 11:08:08;;;;;;;1.87;0.90;;;;;;;;;;5061956;28;20506;-75
2021/05/24 11:10:39;;;;;;;2.57;1.20;;;;;;;;;;5052439;28;20769;-75
2021/05/24 11:13:05;;;;;;;2.07;1.00;;;;;;;;;;5050677;28;20497;-76
2021/05/24 11:15:33;;;;;;;2.07;1.10;;;;;;;;;;5063561;28;20814;-74
2021/05/24 11:20:34;;;;;;;1.70;0.90;;;;;;;;;;5049719;28;20467;-76
2021/05/24 11:23:16;;;;;;;2.50;1.13;;;;;;;;;;5066225;28;20497;-78
2021/05/24 11:25:56;;;;;;;1.80;0.90;;;;;;;;;;5050623;28;20853;-76
2021/05/24 11:28:32;;;;;;;1.80;0.93;;;;;;;;;;5054952;28;20807;-77
2021/05/24 11:31:12;;;;;;;1.80;1.00;;;;;;;;;;5049429;28;20443;-78
2021/05/24 11:33:38;;;;;;;1.80;0.97;;;;;;;;;;5050475;28;20419;-74
2021/05/24 11:36:06;;;;;;;1.70;1.00;;;;;;;;;;5052120;28;20605;-74
2021/05/24 11:38:32;;;;;;;2.37;1.60;;;;;;;;;;5050428;28;20412;-74
2021/05/24 11:41:11;;;;;;;1.80;1.00;;;;;;;;;;5049759;28;20514;-74
2021/05/24 11:43:41;;;;;;;2.07;1.27;;;;;;;;;;5050200;28;20467;-76
2021/05/24 11:46:08;;;;;;;2.30;1.40;;;;;;;;;;5050347;28;20445;-74
2021/05/24 11:48:38;;;;;;;2.40;1.13;;;;;;;;;;5050129;28;20416;-74
2021/05/24 11:51:05;;;;;;;2.30;1.10;;;;;;;;;;5049912;28;20444;-75
2021/05/24 11:53:31;;;;;;;2.30;1.00;;;;;;;;;;5048585;28;20509;-75
2021/05/24 11:56:13;;;;;;;2.30;1.40;;;;;;;;;;5051705;28;20453;-75
2021/05/24 11:58:59;;;;;;;1.80;0.93;;;;;;;;;;5060921;28;20490;-78
2021/05/24 12:01:25;;;;;;;2.70;1.90;;;;;;;;;;5050262;28;20919;-76
2021/05/24 12:03:51;;;;;;;2.17;1.00;;;;;;;;;;5071200;28;20498;-74
2021/05/24 12:06:18;;;;;;;2.50;1.93;;;;;;;;;;5067666;28;20435;-75
2021/05/24 12:08:47;;;;;;;2.00;1.10;;;;;;;;;;5051414;28;20426;-78
2021/05/24 12:11:14;;;;;;;1.80;1.10;;;;;;;;;;5061169;28;20419;-79
2021/05/24 12:14:00;;;;;;;2.17;1.20;;;;;;;;;;5058807;28;20531;-77
2021/05/24 12:16:26;;;;;;;1.90;1.00;;;;;;;;;;5068800;28;20434;-74
2021/05/24 12:18:52;;;;;;;3.30;1.17;;;;;;;;;;5069564;28;21242;-75
2021/05/24 12:21:32;;;;;;;2.33;1.10;;;;;;;;;;5055348;28;20418;-77
2021/05/24 12:23:58;;;;;;;2.57;1.10;;;;;;;;;;5074966;28;20456;-77
2021/05/24 12:26:24;;;;;;;2.60;1.10;;;;;;;;;;5049096;28;20421;-76
2021/05/24 12:28:50;;;;;;;2.10;1.30;;;;;;;;;;5064031;28;20505;-78
2021/05/24 12:31:17;;;;;;;2.00;1.03;;;;;;;;;;5059631;28;20414;-78
2021/05/24 12:33:43;;;;;;;2.33;1.77;;;;;;;;;;5071342;28;20461;-75
2021/05/24 12:36:09;;;;;;;5.63;4.93;;;;;;;;;;5067801;28;20525;-75
2021/05/24 12:38:49;;;;;;;3.97;3.07;;;;;;;;;;5077657;28;20425;-76
2021/05/24 12:41:17;;;;;;;2.53;1.07;;;;;;;;;;5052930;28;20776;-78
2021/05/24 12:43:49;;;;;;;27.37;17.13;;;;;;;;;;5066151;28;20455;-76
2021/05/24 12:46:17;;;;;;;2.40;1.40;;;;;;;;;;5051043;28;20507;-77
2021/05/24 12:48:43;;;;;;;1.80;0.93;;;;;;;;;;5070094;28;20431;-75
2021/05/24 12:51:16;;;;;;;3.00;1.40;;;;;;;;;;5064710;28;20458;-75
2021/05/24 12:53:52;;;;;;;2.00;1.20;;;;;;;;;;5062117;28;20423;-77
2021/05/24 12:56:18;;;;;;;1.97;1.10;;;;;;;;;;5064105;28;20462;-78
2021/05/24 12:58:44;;;;;;;2.00;1.10;;;;;;;;;;5057204;28;20445;-74
2021/05/24 13:01:11;;;;;;;5.20;1.40;;;;;;;;;;5059977;28;20460;-76
2021/05/24 13:03:52;;;;;;;2.10;1.30;;;;;;;;;;5058755;28;21048;-78
2021/05/24 13:06:18;;;;;;;3.37;1.30;;;;;;;;;;5055483;28;20955;-75
2021/05/24 13:09:01;;;;;;;2.70;1.27;;;;;;;;;;5058892;28;20528;-75
2021/05/24 13:11:29;;;;;;;3.80;1.30;;;;;;;;;;5053734;28;21226;-75
2021/05/24 13:14:06;;;;;;;2.60;1.20;;;;;;;;;;5063018;28;20787;-77
2021/05/24 13:16:37;;;;;;;2.27;1.37;;;;;;;;;;5080700;28;20486;-77
2021/05/24 13:22:08;;;;;;;2.30;1.47;;;;;;;;;;5075778;28;20417;-76
2021/05/24 13:30:10;;;;;;;2.00;1.20;;;;;;;;;;5062591;28;20821;-75
2021/05/24 13:32:36;;;;;;;2.63;1.30;;;;;;;;;;5063027;28;20407;-76
2021/05/24 13:35:02;;;;;;;2.20;1.20;;;;;;;;;;5068086;28;20493;-75
2021/05/24 13:37:28;;;;;;;2.20;1.10;;;;;;;;;;5052930;28;20415;-76
2021/05/24 13:39:58;;;;;;;2.50;1.40;;;;;;;;;;5070879;28;20457;-75
2021/05/24 13:42:25;;;;;;;2.23;1.50;;;;;;;;;;5071508;28;20411;-76
2021/05/24 13:44:51;;;;;;;3.17;1.53;;;;;;;;;;5069829;28;20982;-74
2021/05/24 13:47:19;;;;;;;2.20;1.10;;;;;;;;;;5052789;28;20427;-76
2021/05/24 13:49:45;;;;;;;2.70;1.20;;;;;;;;;;5055234;28;20447;-77
2021/05/24 13:52:11;;;;;;;2.20;1.20;;;;;;;;;;5051925;28;20415;-76
2021/05/24 13:54:37;;;;;;;3.50;1.40;;;;;;;;;;5053040;28;20451;-75
2021/05/24 13:57:03;;;;;;;2.10;1.27;;;;;;;;;;5051322;28;20415;-76
2021/05/24 13:59:30;;;;;;;1.90;1.20;;;;;;;;;;5065530;28;20837;-75
2021/05/24 14:01:56;;;;;;;2.10;1.20;;;;;;;;;;5063513;28;20458;-75
2021/05/24 14:04:22;;;;;;;2.50;1.30;;;;;;;;;;5062184;28;20489;-75
2021/05/24 14:06:48;;;;;;;1.93;1.20;;;;;;;;;;5063769;28;20852;-75
2021/05/24 14:09:15;;;;;;;2.57;1.10;;;;;;;;;;5063593;28;20443;-78
2021/05/24 14:11:41;;;;;;;2.43;1.20;;;;;;;;;;5051241;28;20416;-74
2021/05/24 14:14:07;;;;;;;2.13;1.30;;;;;;;;;;5055566;28;20419;-74
2021/05/24 14:16:33;;;;;;;2.30;1.30;;;;;;;;;;5061512;28;20423;-75
2021/05/24 14:18:59;;;;;;;2.30;1.50;;;;;;;;;;5065423;28;20423;-74
2021/05/24 14:21:25;;;;;;;2.10;1.20;;;;;;;;;;5060712;28;20932;-76
2021/05/24 14:23:53;;;;;;;2.00;1.30;;;;;;;;;;5063058;28;20464;-76
2021/05/24 14:26:19;;;;;;;2.40;1.37;;;;;;;;;;5051011;28;20423;-76
2021/05/24 14:28:46;;;;;;;1.93;1.37;;;;;;;;;;5065159;28;20462;-75
2021/05/24 14:31:12;;;;;;;2.63;1.20;;;;;;;;;;5060511;28;20489;-76
2021/05/24 14:33:39;;;;;;;3.10;1.40;;;;;;;;;;5059763;28;20435;-74
2021/05/24 14:36:05;;;;;;;2.57;1.23;;;;;;;;;;5070139;28;20772;-73
2021/05/24 14:38:31;;;;;;;2.23;1.20;;;;;;;;;;5066402;28;20439;-74
2021/05/24 14:40:59;;;;;;;2.73;1.30;;;;;;;;;;5050939;28;20462;-77
2021/05/24 14:43:25;;;;;;;2.10;1.30;;;;;;;;;;5078536;28;20567;-74
2021/05/24 14:45:54;;;;;;;3.70;1.30;;;;;;;;;;5059895;28;20510;-74
2021/05/24 14:48:21;;;;;;;1.83;1.20;;;;;;;;;;5063936;28;20485;-75
2021/05/24 14:50:48;;;;;;;2.10;1.30;;;;;;;;;;5062495;28;20437;-76
2021/05/24 14:53:19;;;;;;;2.00;1.20;;;;;;;;;;5072414;28;20436;-75
2021/05/24 14:55:45;;;;;;;4.77;1.50;;;;;;;;;;5078245;28;20813;-75